EGPK/PIK METAR and TAF weather

Enter ICAO airport designator
Station Type Date Time Source
EGPK METAR 2020/01/18 03:50 UTC NOAA

EGPK 180350Z 27008KT 9999 FEW035 04/01 Q1019


Station Type Date Time Source
EGPK Decoded METAR 2020/01/18 03:50 UTC NOAA

Prestwick Airport, United Kingdom (EGPK) 55-30N 004-35W 0M
Jan 17, 2020 - 10:50 PM EST / 2020.01.18 0350 UTC
Wind: from the W (270 degrees) at 9 MPH (8 KT):0
Visibility: greater than 7 mile(s):0
Sky conditions: mostly clear
Temperature: 39 F (4 C)
Dew Point: 33 F (1 C)
Relative Humidity: 80%
Pressure (altimeter): 30.09 in. Hg (1019 hPa)
ob: EGPK 180350Z 27008KT 9999 FEW035 04/01 Q1019
cycle: 4

Station Type Date Time Source
EGPK TAF 2020/01/17 18:06 UTC NOAA

TAF EGPK 171703Z 1718/1818 24012KT 9999 SCT019
TEMPO 1718/1807 6000 SHRA BKN012 PROB30
TEMPO 1718/1807 25015G25KT
BECMG 1813/1816 VRB04KT

Example: see airport list